Arco, ID

6:21 AM MDT on August 23, 2019 (GMT -0600)
Darlington | | Change Station
Active Advisory: Fire Weather Watch

Elev 5640 ft 43.84 °N, 113.38 °W | Updated 20 seconds ago

Clear
Clear
42.8 °F
Feels Like 43 °F
N
2
Wind Variable Wind from ESE
Gusts 2.0 mph

Today
High -- | Low -- °F
--% Chance of Precip.
Yesterday
High -- | Low -- °F
Precip. -- in
Pressure 30.10 in
Visibility 10.0 miles
Clouds Clear
Windchill 43 °F
Dew Point 41 °F
Humidity 94%
Rainfall 0.00 in
Snow Depth Not available.
6:46 AM 8:24 PM
Waning Gibbous, 51% visible
METAR KSUN 231155Z AUTO 30005KT 10SM CLR 09/05 A3010 RMK AO2
Pressure 30.10 in
Visibility 10.0 miles
Clouds Clear
Windchill 43 °F
Dew Point 41 °F
Humidity 94%
Rainfall 0.00 in
Snow Depth Not available.
6:46 AM 8:24 PM
Waning Gibbous, 51% visible
METAR KSUN 231155Z AUTO 30005KT 10SM CLR 09/05 A3010 RMK AO2

Get Your Daily Forecast Email!

Thanks for signing up!

Be on the lookout for a verification email in your inbox.

You'll start receiving severe weather alerts in your inbox..

×

10-Day Weather Forecast

Almanac

Astronomy

Aug. 23, 2019 Rise Set
Actual Time
Civil Twilight
Nautical Twilight
Astronomical Twilight
Moon
Length of Visible Light
Length of Day
Tomorrow will be .
, % of the Moon is Illuminated

Today's Extremes

State Highs State Lows

Community

WunderPhotos

Category 6

Welcome to Category 6. This is the collective home for Weather Underground's featured writeups by Dr. Jeff Masters (right), Bob Henson (left), Chris Burt, and other regular contributors.

Nearby

Air Quality

  Air Quality AQ Index Pollutant
Not available.

Snow Depth

Station Depth Elevation

Earthquake Activity

City Distance Mag. Time & Date
Minimum magnitude displayed is 2.5.

Coastal Water Temperatures

Place Temperature

Stations

Nearby Weather Stations

Station Location Temp. Windchill Dew Point Humidity Wind Precip. Elev Updated Type
                   

Watches & Warnings

Fire Weather Watch
Issued: 3:40 AM MDT Aug. 23, 2019 – National Weather Service

... Fire Weather Watch remains in effect from Saturday afternoon
through Saturday evening for gusty winds and low relative
humidity for fire weather zones 410 and 425...

* affected area... fire weather zone 410 upper Snake River
Valley/Idaho Falls blm and fire weather zone 425 middle Snake
River Valley/Twin Falls blm north of the Snake River.

* Winds... southwest 15 to 25 mph with gusts up to 35 mph.

* Relative humidity... 12 to 17 percent.

* Impacts... once a fire starts, fast fire spread rates and high
intensity fires are likely to result.

Precautionary/preparedness actions...

A Fire Weather Watch means that critical fire weather conditions
are forecast to occur. Listen for later forecasts and possible
red flag warnings.